sensor_id;sensor_type;location;lat;lon;timestamp;pressure;altitude;pressure_sealevel;temperature;humidity
21276;BME280;36472;52.170;20.884;2022-11-04T00:02:15;100340.31;;;5.85;100.00
21276;BME280;36472;52.170;20.884;2022-11-04T00:04:43;100319.44;;;5.85;100.00
21276;BME280;36472;52.170;20.884;2022-11-04T00:07:13;100320.16;;;5.89;100.00
21276;BME280;36472;52.170;20.884;2022-11-04T00:10:00;100320.28;;;5.86;100.00
21276;BME280;36472;52.170;20.884;2022-11-04T00:12:28;100320.84;;;5.92;100.00
21276;BME280;36472;52.170;20.884;2022-11-04T00:14:56;100320.00;;;5.92;100.00
21276;BME280;36472;52.170;20.884;2022-11-04T00:17:45;100304.34;;;5.92;100.00
21276;BME280;36472;52.170;20.884;2022-11-04T00:20:13;100311.13;;;5.96;100.00
21276;BME280;36472;52.170;20.884;2022-11-04T00:23:01;100303.44;;;5.93;100.00
21276;BME280;36472;52.170;20.884;2022-11-04T00:25:47;100303.25;;;5.97;100.00
21276;BME280;36472;52.170;20.884;2022-11-04T00:28:33;100306.66;;;5.99;100.00
21276;BME280;36472;52.170;20.884;2022-11-04T00:31:10;100302.34;;;5.98;100.00
21276;BME280;36472;52.170;20.884;2022-11-04T00:33:58;100298.72;;;6.01;100.00
21276;BME280;36472;52.170;20.884;2022-11-04T00:36:27;100297.75;;;6.04;100.00
21276;BME280;36472;52.170;20.884;2022-11-04T00:38:57;100292.53;;;6.04;100.00
21276;BME280;36472;52.170;20.884;2022-11-04T00:41:26;100287.09;;;6.08;100.00
21276;BME280;36472;52.170;20.884;2022-11-04T00:43:58;100284.09;;;6.16;100.00
21276;BME280;36472;52.170;20.884;2022-11-04T00:46:29;100282.44;;;6.15;100.00
21276;BME280;36472;52.170;20.884;2022-11-04T00:48:59;100273.44;;;6.21;100.00
21276;BME280;36472;52.170;20.884;2022-11-04T00:51:28;100269.81;;;6.23;100.00
21276;BME280;36472;52.170;20.884;2022-11-04T00:53:58;100271.59;;;6.40;100.00
21276;BME280;36472;52.170;20.884;2022-11-04T00:56:27;100275.78;;;6.44;100.00
21276;BME280;36472;52.170;20.884;2022-11-04T00:58:58;100260.66;;;6.51;100.00
21276;BME280;36472;52.170;20.884;2022-11-04T01:01:27;100263.00;;;6.55;100.00
21276;BME280;36472;52.170;20.884;2022-11-04T01:03:56;100251.34;;;6.63;100.00
21276;BME280;36472;52.170;20.884;2022-11-04T01:06:26;100247.88;;;6.62;100.00
21276;BME280;36472;52.170;20.884;2022-11-04T01:08:56;100244.66;;;6.57;100.00
21276;BME280;36472;52.170;20.884;2022-11-04T01:11:27;100242.78;;;6.77;100.00
21276;BME280;36472;52.170;20.884;2022-11-04T01:13:57;100234.34;;;6.71;100.00
21276;BME280;36472;52.170;20.884;2022-11-04T01:16:27;100231.06;;;6.68;100.00
21276;BME280;36472;52.170;20.884;2022-11-04T01:18:56;100229.50;;;6.64;100.00
21276;BME280;36472;52.170;20.884;2022-11-04T01:21:26;100225.56;;;6.72;100.00
21276;BME280;36472;52.170;20.884;2022-11-04T01:23:54;100218.59;;;6.73;100.00
21276;BME280;36472;52.170;20.884;2022-11-04T01:26:26;100220.81;;;6.81;100.00
21276;BME280;36472;52.170;20.884;2022-11-04T01:28:56;100220.19;;;6.76;100.00
21276;BME280;36472;52.170;20.884;2022-11-04T01:31:29;100223.66;;;6.76;100.00
21276;BME280;36472;52.170;20.884;2022-11-04T01:33:58;100211.97;;;6.83;99.73
21276;BME280;36472;52.170;20.884;2022-11-04T01:36:27;100208.50;;;6.83;99.81
21276;BME280;36472;52.170;20.884;2022-11-04T01:38:56;100204.53;;;6.76;99.97
21276;BME280;36472;52.170;20.884;2022-11-04T01:41:29;100199.16;;;6.79;100.00
21276;BME280;36472;52.170;20.884;2022-11-04T01:44:00;100203.28;;;6.83;100.00
21276;BME280;36472;52.170;20.884;2022-11-04T01:46:44;100191.63;;;6.72;100.00
21276;BME280;36472;52.170;20.884;2022-11-04T01:49:25;100183.41;;;6.80;99.87
21276;BME280;36472;52.170;20.884;2022-11-04T01:52:01;100176.97;;;6.70;100.00
21276;BME280;36472;52.170;20.884;2022-11-04T01:54:34;100173.94;;;6.78;100.00
21276;BME280;36472;52.170;20.884;2022-11-04T01:57:10;100164.00;;;6.68;100.00
21276;BME280;36472;52.170;20.884;2022-11-04T01:59:41;100170.53;;;6.60;100.00
21276;BME280;36472;52.170;20.884;2022-11-04T02:02:10;100156.47;;;6.62;100.00
21276;BME280;36472;52.170;20.884;2022-11-04T02:04:41;100162.28;;;6.67;100.00
21276;BME280;36472;52.170;20.884;2022-11-04T02:07:11;100150.09;;;6.68;100.00
21276;BME280;36472;52.170;20.884;2022-11-04T02:09:41;100145.72;;;6.68;100.00
21276;BME280;36472;52.170;20.884;2022-11-04T02:12:14;100144.88;;;6.68;100.00
21276;BME280;36472;52.170;20.884;2022-11-04T02:15:01;100151.19;;;6.80;99.15
21276;BME280;36472;52.170;20.884;2022-11-04T02:17:49;100148.47;;;6.65;100.00
21276;BME280;36472;52.170;20.884;2022-11-04T02:20:47;100157.00;;;6.69;100.00
21276;BME280;36472;52.170;20.884;2022-11-04T02:24:06;100149.69;;;6.76;99.70
21276;BME280;36472;52.170;20.884;2022-11-04T02:30:07;100121.53;;;6.65;99.93
21276;BME280;36472;52.170;20.884;2022-11-04T02:33:04;100130.47;;;6.77;99.66
21276;BME280;36472;52.170;20.884;2022-11-04T02:35:49;100124.00;;;6.68;99.60
21276;BME280;36472;52.170;20.884;2022-11-04T02:38:34;100127.06;;;6.59;100.00
21276;BME280;36472;52.170;20.884;2022-11-04T02:41:15;100117.66;;;6.56;100.00
21276;BME280;36472;52.170;20.884;2022-11-04T02:44:02;100114.84;;;6.59;99.88
21276;BME280;36472;52.170;20.884;2022-11-04T02:46:42;100109.22;;;6.67;99.83
21276;BME280;36472;52.170;20.884;2022-11-04T02:49:20;100108.56;;;6.63;99.48
21276;BME280;36472;52.170;20.884;2022-11-04T02:51:57;100116.03;;;6.69;99.84
21276;BME280;36472;52.170;20.884;2022-11-04T02:54:32;100112.59;;;6.69;99.20
21276;BME280;36472;52.170;20.884;2022-11-04T02:57:08;100099.31;;;6.73;99.06
21276;BME280;36472;52.170;20.884;2022-11-04T02:59:43;100099.47;;;6.70;99.51
21276;BME280;36472;52.170;20.884;2022-11-04T03:02:21;100088.19;;;6.70;99.40
21276;BME280;36472;52.170;20.884;2022-11-04T03:04:55;100095.75;;;6.74;99.05
21276;BME280;36472;52.170;20.884;2022-11-04T03:07:30;100104.38;;;6.77;99.68
21276;BME280;36472;52.170;20.884;2022-11-04T03:10:04;100103.25;;;6.81;98.85
21276;BME280;36472;52.170;20.884;2022-11-04T03:12:43;100095.59;;;6.78;98.71
21276;BME280;36472;52.170;20.884;2022-11-04T03:15:21;100103.09;;;6.84;98.50
21276;BME280;36472;52.170;20.884;2022-11-04T03:18:02;100097.13;;;6.82;98.76
21276;BME280;36472;52.170;20.884;2022-11-04T03:20:37;100100.56;;;6.82;98.54
21276;BME280;36472;52.170;20.884;2022-11-04T03:23:09;100088.34;;;6.83;98.36
21276;BME280;36472;52.170;20.884;2022-11-04T03:25:44;100086.31;;;6.88;97.79
21276;BME280;36472;52.170;20.884;2022-11-04T03:28:29;100089.00;;;6.86;98.21
21276;BME280;36472;52.170;20.884;2022-11-04T03:31:04;100081.97;;;6.88;98.60
21276;BME280;36472;52.170;20.884;2022-11-04T03:33:46;100078.41;;;6.89;97.99
21276;BME280;36472;52.170;20.884;2022-11-04T03:36:16;100074.00;;;6.90;98.16
21276;BME280;36472;52.170;20.884;2022-11-04T03:38:46;100071.66;;;7.01;97.45
21276;BME280;36472;52.170;20.884;2022-11-04T03:41:24;100066.69;;;6.97;97.07
21276;BME280;36472;52.170;20.884;2022-11-04T03:43:56;100062.25;;;6.99;97.35
21276;BME280;36472;52.170;20.884;2022-11-04T03:46:25;100049.06;;;7.00;96.99
21276;BME280;36472;52.170;20.884;2022-11-04T03:48:57;100051.34;;;7.06;97.19
21276;BME280;36472;52.170;20.884;2022-11-04T03:51:26;100047.81;;;7.07;96.91
21276;BME280;36472;52.170;20.884;2022-11-04T03:53:56;100038.44;;;7.19;97.90
21276;BME280;36472;52.170;20.884;2022-11-04T03:56:51;100048.03;;;7.19;99.03
21276;BME280;36472;52.170;20.884;2022-11-04T03:59:50;100061.28;;;7.00;99.50
21276;BME280;36472;52.170;20.884;2022-11-04T04:02:34;100061.22;;;7.01;100.00
21276;BME280;36472;52.170;20.884;2022-11-04T04:05:14;100052.25;;;7.05;99.68
21276;BME280;36472;52.170;20.884;2022-11-04T04:07:53;100049.31;;;7.11;99.54
21276;BME280;36472;52.170;20.884;2022-11-04T04:10:31;100049.47;;;7.08;98.83
21276;BME280;36472;52.170;20.884;2022-11-04T04:13:25;100058.31;;;7.22;98.77
21276;BME280;36472;52.170;20.884;2022-11-04T04:16:02;100046.28;;;7.19;98.36
21276;BME280;36472;52.170;20.884;2022-11-04T04:18:39;100044.41;;;7.21;98.76
21276;BME280;36472;52.170;20.884;2022-11-04T04:21:18;100046.31;;;7.34;96.78
21276;BME280;36472;52.170;20.884;2022-11-04T04:23:50;100050.34;;;7.39;95.49
21276;BME280;36472;52.170;20.884;2022-11-04T04:26:40;100051.63;;;7.32;96.53
21276;BME280;36472;52.170;20.884;2022-11-04T04:29:28;100048.09;;;7.33;96.21
21276;BME280;36472;52.170;20.884;2022-11-04T04:31:59;100056.44;;;7.40;96.37
21276;BME280;36472;52.170;20.884;2022-11-04T04:34:31;100058.97;;;7.41;96.20
21276;BME280;36472;52.170;20.884;2022-11-04T04:37:06;100047.97;;;7.51;95.32
21276;BME280;36472;52.170;20.884;2022-11-04T04:39:40;100039.38;;;7.48;96.44
21276;BME280;36472;52.170;20.884;2022-11-04T04:42:31;100037.50;;;7.51;94.48
21276;BME280;36472;52.170;20.884;2022-11-04T04:45:24;100043.75;;;7.48;94.40
21276;BME280;36472;52.170;20.884;2022-11-04T04:47:56;100040.03;;;7.52;94.82
21276;BME280;36472;52.170;20.884;2022-11-04T04:50:30;100035.63;;;7.53;95.40
21276;BME280;36472;52.170;20.884;2022-11-04T04:53:02;100040.69;;;7.56;95.99
21276;BME280;36472;52.170;20.884;2022-11-04T04:55:31;100028.84;;;7.64;94.88
21276;BME280;36472;52.170;20.884;2022-11-04T04:58:08;100029.41;;;7.55;95.61
21276;BME280;36472;52.170;20.884;2022-11-04T05:00:36;100034.53;;;7.57;94.27
21276;BME280;36472;52.170;20.884;2022-11-04T05:03:05;100026.78;;;7.55;95.01
21276;BME280;36472;52.170;20.884;2022-11-04T05:05:34;100038.75;;;7.59;95.17
21276;BME280;36472;52.170;20.884;2022-11-04T05:08:06;100046.94;;;7.53;95.53
21276;BME280;36472;52.170;20.884;2022-11-04T05:10:35;100048.53;;;7.56;95.47
21276;BME280;36472;52.170;20.884;2022-11-04T05:13:04;100043.97;;;7.59;94.55
21276;BME280;36472;52.170;20.884;2022-11-04T05:15:50;100030.31;;;7.54;95.21
21276;BME280;36472;52.170;20.884;2022-11-04T05:18:19;100031.72;;;7.60;94.16
21276;BME280;36472;52.170;20.884;2022-11-04T05:20:48;100020.44;;;7.59;94.59
21276;BME280;36472;52.170;20.884;2022-11-04T05:23:18;100028.53;;;7.55;94.73
21276;BME280;36472;52.170;20.884;2022-11-04T05:25:47;100022.13;;;7.60;94.00
21276;BME280;36472;52.170;20.884;2022-11-04T05:28:16;100020.09;;;7.65;94.00
21276;BME280;36472;52.170;20.884;2022-11-04T05:30:44;100016.81;;;7.62;94.44
21276;BME280;36472;52.170;20.884;2022-11-04T05:33:13;100007.44;;;7.58;94.47
21276;BME280;36472;52.170;20.884;2022-11-04T05:35:42;100007.09;;;7.64;94.61
21276;BME280;36472;52.170;20.884;2022-11-04T05:38:10;100003.72;;;7.62;93.45
21276;BME280;36472;52.170;20.884;2022-11-04T05:40:40;99996.16;;;7.57;93.63
21276;BME280;36472;52.170;20.884;2022-11-04T05:43:10;99993.28;;;7.62;93.56
21276;BME280;36472;52.170;20.884;2022-11-04T05:45:38;100000.66;;;7.70;92.51
21276;BME280;36472;52.170;20.884;2022-11-04T05:48:08;99995.59;;;7.66;92.55
21276;BME280;36472;52.170;20.884;2022-11-04T05:50:36;100003.00;;;7.74;92.22
21276;BME280;36472;52.170;20.884;2022-11-04T05:53:05;99989.75;;;7.77;92.25
21276;BME280;36472;52.170;20.884;2022-11-04T05:55:34;99982.72;;;7.78;92.39
21276;BME280;36472;52.170;20.884;2022-11-04T05:58:04;99976.53;;;7.79;92.28
21276;BME280;36472;52.170;20.884;2022-11-04T06:00:33;99975.25;;;7.86;91.72
21276;BME280;36472;52.170;20.884;2022-11-04T06:03:02;99973.19;;;7.77;92.03
21276;BME280;36472;52.170;20.884;2022-11-04T06:05:31;99979.94;;;7.81;91.78
21276;BME280;36472;52.170;20.884;2022-11-04T06:08:00;99980.84;;;7.80;91.93
21276;BME280;36472;52.170;20.884;2022-11-04T06:10:29;99972.00;;;7.82;92.03
21276;BME280;36472;52.170;20.884;2022-11-04T06:12:58;99971.13;;;7.82;91.68
21276;BME280;36472;52.170;20.884;2022-11-04T06:15:28;99969.16;;;7.85;92.29
21276;BME280;36472;52.170;20.884;2022-11-04T06:17:57;99970.13;;;7.84;92.39
21276;BME280;36472;52.170;20.884;2022-11-04T06:20:25;99967.88;;;7.93;91.65
21276;BME280;36472;52.170;20.884;2022-11-04T06:22:54;99969.38;;;7.97;91.24
21276;BME280;36472;52.170;20.884;2022-11-04T06:25:23;99962.56;;;7.94;91.26
21276;BME280;36472;52.170;20.884;2022-11-04T06:27:52;99985.97;;;7.96;90.51
21276;BME280;36472;52.170;20.884;2022-11-04T06:30:20;99974.41;;;8.00;91.04
21276;BME280;36472;52.170;20.884;2022-11-04T06:32:54;99971.88;;;7.98;91.85
21276;BME280;36472;52.170;20.884;2022-11-04T06:35:23;99974.31;;;8.01;91.02
21276;BME280;36472;52.170;20.884;2022-11-04T06:37:54;99966.38;;;8.03;90.92
21276;BME280;36472;52.170;20.884;2022-11-04T06:40:23;99975.16;;;8.02;90.84
21276;BME280;36472;52.170;20.884;2022-11-04T06:42:51;99972.72;;;7.99;90.89
21276;BME280;36472;52.170;20.884;2022-11-04T06:45:20;99971.22;;;8.09;90.81
21276;BME280;36472;52.170;20.884;2022-11-04T06:47:50;99974.78;;;8.08;90.95
21276;BME280;36472;52.170;20.884;2022-11-04T06:50:19;99982.56;;;8.10;90.14
21276;BME280;36472;52.170;20.884;2022-11-04T06:52:48;99973.66;;;8.12;91.16
21276;BME280;36472;52.170;20.884;2022-11-04T06:55:16;99973.38;;;8.17;90.73
21276;BME280;36472;52.170;20.884;2022-11-04T06:57:45;99982.03;;;8.32;90.30
21276;BME280;36472;52.170;20.884;2022-11-04T07:00:14;99981.78;;;8.22;89.81
21276;BME280;36472;52.170;20.884;2022-11-04T07:02:43;99967.00;;;8.21;89.63
21276;BME280;36472;52.170;20.884;2022-11-04T07:05:13;99968.78;;;8.20;90.74
21276;BME280;36472;52.170;20.884;2022-11-04T07:07:42;99980.19;;;8.19;90.66
21276;BME280;36472;52.170;20.884;2022-11-04T07:10:11;99986.38;;;8.18;89.32
21276;BME280;36472;52.170;20.884;2022-11-04T07:12:40;99979.44;;;8.17;89.70
21276;BME280;36472;52.170;20.884;2022-11-04T07:15:09;99983.53;;;8.21;89.31
21276;BME280;36472;52.170;20.884;2022-11-04T07:17:38;99986.72;;;8.27;89.71
21276;BME280;36472;52.170;20.884;2022-11-04T07:20:08;99993.75;;;8.26;89.79
21276;BME280;36472;52.170;20.884;2022-11-04T07:22:41;99985.59;;;8.31;89.98
21276;BME280;36472;52.170;20.884;2022-11-04T07:25:09;99971.69;;;8.30;89.16
21276;BME280;36472;52.170;20.884;2022-11-04T07:27:38;99977.66;;;8.32;89.79
21276;BME280;36472;52.170;20.884;2022-11-04T07:30:08;99973.91;;;8.36;89.08
21276;BME280;36472;52.170;20.884;2022-11-04T07:32:37;99973.91;;;8.36;88.97
21276;BME280;36472;52.170;20.884;2022-11-04T07:35:07;99983.94;;;8.44;89.27
21276;BME280;36472;52.170;20.884;2022-11-04T07:37:36;99968.97;;;8.46;88.41
21276;BME280;36472;52.170;20.884;2022-11-04T07:40:08;99973.25;;;8.47;88.15
21276;BME280;36472;52.170;20.884;2022-11-04T07:42:37;99960.50;;;8.55;88.43
21276;BME280;36472;52.170;20.884;2022-11-04T07:45:08;99969.00;;;8.59;88.61
21276;BME280;36472;52.170;20.884;2022-11-04T07:47:37;99967.94;;;8.76;87.28
21276;BME280;36472;52.170;20.884;2022-11-04T07:50:06;99964.03;;;8.69;87.31
21276;BME280;36472;52.170;20.884;2022-11-04T07:52:38;99956.16;;;8.69;87.86
21276;BME280;36472;52.170;20.884;2022-11-04T07:55:09;99947.94;;;8.75;88.21
21276;BME280;36472;52.170;20.884;2022-11-04T07:57:40;99950.84;;;8.70;87.72
21276;BME280;36472;52.170;20.884;2022-11-04T08:00:10;99953.16;;;8.75;87.63
21276;BME280;36472;52.170;20.884;2022-11-04T08:02:39;99944.97;;;8.67;87.70
21276;BME280;36472;52.170;20.884;2022-11-04T08:05:08;99941.97;;;8.58;88.34
21276;BME280;36472;52.170;20.884;2022-11-04T08:07:37;99939.63;;;8.68;88.42
21276;BME280;36472;52.170;20.884;2022-11-04T08:10:08;99934.63;;;8.78;89.02
21276;BME280;36472;52.170;20.884;2022-11-04T08:12:37;99934.09;;;8.73;88.51
21276;BME280;36472;52.170;20.884;2022-11-04T08:15:07;99941.63;;;8.77;87.55
21276;BME280;36472;52.170;20.884;2022-11-04T08:17:36;99935.75;;;8.74;88.01
21276;BME280;36472;52.170;20.884;2022-11-04T08:20:05;99931.78;;;8.81;88.79
21276;BME280;36472;52.170;20.884;2022-11-04T08:22:36;99925.63;;;8.82;88.64
21276;BME280;36472;52.170;20.884;2022-11-04T08:25:06;99925.53;;;8.96;87.57
21276;BME280;36472;52.170;20.884;2022-11-04T08:27:36;99915.81;;;8.98;87.55
21276;BME280;36472;52.170;20.884;2022-11-04T08:30:06;99924.47;;;8.86;87.39
21276;BME280;36472;52.170;20.884;2022-11-04T08:32:35;99924.03;;;8.79;87.32
21276;BME280;36472;52.170;20.884;2022-11-04T08:35:05;99923.34;;;8.90;87.14
21276;BME280;36472;52.170;20.884;2022-11-04T08:37:34;99919.13;;;8.88;87.07
21276;BME280;36472;52.170;20.884;2022-11-04T08:40:04;99905.09;;;8.89;88.73
21276;BME280;36472;52.170;20.884;2022-11-04T08:42:33;99908.09;;;8.83;90.28
21276;BME280;36472;52.170;20.884;2022-11-04T08:45:04;99904.03;;;8.91;90.18
21276;BME280;36472;52.170;20.884;2022-11-04T08:47:33;99909.34;;;8.77;90.75
21276;BME280;36472;52.170;20.884;2022-11-04T08:50:02;99902.22;;;8.79;91.84
21276;BME280;36472;52.170;20.884;2022-11-04T08:52:31;99896.88;;;8.68;90.50
21276;BME280;36472;52.170;20.884;2022-11-04T08:54:59;99908.31;;;8.79;89.58
21276;BME280;36472;52.170;20.884;2022-11-04T08:57:28;99906.25;;;8.97;89.40
21276;BME280;36472;52.170;20.884;2022-11-04T08:59:57;99905.28;;;8.86;89.70
21276;BME280;36472;52.170;20.884;2022-11-04T09:02:28;99907.53;;;8.92;89.27
21276;BME280;36472;52.170;20.884;2022-11-04T09:04:59;99908.78;;;8.99;90.61
21276;BME280;36472;52.170;20.884;2022-11-04T09:07:28;99907.63;;;9.03;91.03
21276;BME280;36472;52.170;20.884;2022-11-04T09:09:57;99905.00;;;9.03;88.88
21276;BME280;36472;52.170;20.884;2022-11-04T09:12:26;99904.81;;;9.06;88.56
21276;BME280;36472;52.170;20.884;2022-11-04T09:14:54;99898.19;;;9.01;89.40
21276;BME280;36472;52.170;20.884;2022-11-04T09:17:23;99896.66;;;9.11;90.61
21276;BME280;36472;52.170;20.884;2022-11-04T09:19:53;99907.22;;;9.09;92.81
21276;BME280;36472;52.170;20.884;2022-11-04T09:22:22;99896.22;;;9.04;91.45
21276;BME280;36472;52.170;20.884;2022-11-04T09:24:51;99897.78;;;9.07;91.90
21276;BME280;36472;52.170;20.884;2022-11-04T09:27:20;99893.28;;;9.09;90.87
21276;BME280;36472;52.170;20.884;2022-11-04T09:29:48;99889.75;;;9.23;88.37
21276;BME280;36472;52.170;20.884;2022-11-04T09:32:17;99892.03;;;9.27;88.28
21276;BME280;36472;52.170;20.884;2022-11-04T09:34:46;99892.16;;;9.39;88.74
21276;BME280;36472;52.170;20.884;2022-11-04T09:37:16;99884.69;;;9.58;87.48
21276;BME280;36472;52.170;20.884;2022-11-04T09:39:45;99885.53;;;9.59;86.25
21276;BME280;36472;52.170;20.884;2022-11-04T09:42:44;99883.53;;;9.62;86.33
21276;BME280;36472;52.170;20.884;2022-11-04T09:45:18;99882.38;;;9.79;84.63
21276;BME280;36472;52.170;20.884;2022-11-04T09:47:56;99876.31;;;10.03;83.42
21276;BME280;36472;52.170;20.884;2022-11-04T09:50:29;99878.75;;;9.93;83.26
21276;BME280;36472;52.170;20.884;2022-11-04T09:53:07;99875.44;;;10.15;82.55
21276;BME280;36472;52.170;20.884;2022-11-04T09:55:49;99860.13;;;10.09;83.13
21276;BME280;36472;52.170;20.884;2022-11-04T09:58:20;99867.09;;;10.21;82.19
21276;BME280;36472;52.170;20.884;2022-11-04T10:01:02;99872.50;;;10.20;81.87
21276;BME280;36472;52.170;20.884;2022-11-04T10:03:52;99865.81;;;10.40;82.73
21276;BME280;36472;52.170;20.884;2022-11-04T10:06:36;99863.69;;;10.45;80.91
21276;BME280;36472;52.170;20.884;2022-11-04T10:09:28;99841.31;;;10.63;78.63
21276;BME280;36472;52.170;20.884;2022-11-04T10:12:16;99846.22;;;10.68;79.96
21276;BME280;36472;52.170;20.884;2022-11-04T10:15:14;99840.09;;;10.92;78.46
21276;BME280;36472;52.170;20.884;2022-11-04T10:17:59;99845.47;;;11.01;78.93
21276;BME280;36472;52.170;20.884;2022-11-04T10:20:50;99837.16;;;11.30;76.34
21276;BME280;36472;52.170;20.884;2022-11-04T10:23:31;99838.84;;;11.31;76.22
21276;BME280;36472;52.170;20.884;2022-11-04T10:26:15;99842.78;;;11.26;75.93
21276;BME280;36472;52.170;20.884;2022-11-04T10:28:51;99837.63;;;11.35;75.86
21276;BME280;36472;52.170;20.884;2022-11-04T10:31:23;99826.03;;;11.49;75.72
21276;BME280;36472;52.170;20.884;2022-11-04T10:33:58;99829.75;;;11.47;75.80
21276;BME280;36472;52.170;20.884;2022-11-04T10:36:31;99822.44;;;11.39;75.48
21276;BME280;36472;52.170;20.884;2022-11-04T10:39:08;99818.16;;;11.38;76.56
21276;BME280;36472;52.170;20.884;2022-11-04T10:41:42;99812.31;;;11.34;75.95
21276;BME280;36472;52.170;20.884;2022-11-04T10:44:20;99808.94;;;11.21;76.94
21276;BME280;36472;52.170;20.884;2022-11-04T10:47:01;99798.78;;;11.28;76.90
21276;BME280;36472;52.170;20.884;2022-11-04T10:49:51;99797.34;;;11.46;77.82
21276;BME280;36472;52.170;20.884;2022-11-04T10:52:42;99802.34;;;11.49;76.13
21276;BME280;36472;52.170;20.884;2022-11-04T10:55:32;99798.16;;;11.58;75.56
21276;BME280;36472;52.170;20.884;2022-11-04T10:58:17;99795.16;;;11.63;74.52
21276;BME280;36472;52.170;20.884;2022-11-04T11:00:47;99793.13;;;11.66;75.15
21276;BME280;36472;52.170;20.884;2022-11-04T11:03:32;99807.94;;;11.78;74.85
21276;BME280;36472;52.170;20.884;2022-11-04T11:06:14;99790.84;;;11.84;73.65
21276;BME280;36472;52.170;20.884;2022-11-04T11:08:47;99778.63;;;11.94;74.00
21276;BME280;36472;52.170;20.884;2022-11-04T11:11:36;99791.38;;;12.10;74.78
21276;BME280;36472;52.170;20.884;2022-11-04T11:14:17;99784.41;;;12.21;73.54
21276;BME280;36472;52.170;20.884;2022-11-04T11:16:47;99779.69;;;12.35;71.80
21276;BME280;36472;52.170;20.884;2022-11-04T11:19:19;99784.69;;;12.39;72.14
21276;BME280;36472;52.170;20.884;2022-11-04T11:21:50;99776.84;;;12.48;71.61
21276;BME280;36472;52.170;20.884;2022-11-04T11:24:21;99775.81;;;12.40;71.38
21276;BME280;36472;52.170;20.884;2022-11-04T11:26:53;99774.75;;;12.42;71.70
21276;BME280;36472;52.170;20.884;2022-11-04T11:29:26;99764.72;;;12.57;71.01
21276;BME280;36472;52.170;20.884;2022-11-04T11:31:58;99772.19;;;12.73;70.38
21276;BME280;36472;52.170;20.884;2022-11-04T11:34:32;99766.91;;;12.73;70.45
21276;BME280;36472;52.170;20.884;2022-11-04T11:37:20;99768.31;;;12.77;68.22
21276;BME280;36472;52.170;20.884;2022-11-04T11:39:50;99761.94;;;12.59;69.31
21276;BME280;36472;52.170;20.884;2022-11-04T11:42:19;99762.78;;;12.59;69.12
21276;BME280;36472;52.170;20.884;2022-11-04T11:44:52;99752.38;;;12.58;69.74
21276;BME280;36472;52.170;20.884;2022-11-04T11:47:34;99746.41;;;12.56;69.43
21276;BME280;36472;52.170;20.884;2022-11-04T11:50:14;99755.59;;;12.61;70.55
21276;BME280;36472;52.170;20.884;2022-11-04T11:52:44;99756.03;;;12.66;68.93
21276;BME280;36472;52.170;20.884;2022-11-04T11:55:18;99757.97;;;12.64;69.86
21276;BME280;36472;52.170;20.884;2022-11-04T11:57:57;99758.81;;;12.65;70.90
21276;BME280;36472;52.170;20.884;2022-11-04T12:00:53;99761.41;;;12.86;69.17
21276;BME280;36472;52.170;20.884;2022-11-04T12:03:40;99750.81;;;12.76;68.79
21276;BME280;36472;52.170;20.884;2022-11-04T12:06:44;99754.66;;;12.72;70.05
21276;BME280;36472;52.170;20.884;2022-11-04T12:09:40;99744.09;;;12.62;68.74
21276;BME280;36472;52.170;20.884;2022-11-04T12:12:33;99750.50;;;12.69;69.57
21276;BME280;36472;52.170;20.884;2022-11-04T12:15:36;99741.47;;;12.62;69.21
21276;BME280;36472;52.170;20.884;2022-11-04T12:18:44;99740.41;;;12.75;69.61
21276;BME280;36472;52.170;20.884;2022-11-04T12:21:22;99743.56;;;12.68;69.49
21276;BME280;36472;52.170;20.884;2022-11-04T12:24:13;99740.59;;;12.62;69.34
21276;BME280;36472;52.170;20.884;2022-11-04T12:26:54;99743.91;;;12.54;69.98
21276;BME280;36472;52.170;20.884;2022-11-04T12:29:47;99738.41;;;12.67;70.08
21276;BME280;36472;52.170;20.884;2022-11-04T12:32:34;99734.34;;;12.84;68.58
21276;BME280;36472;52.170;20.884;2022-11-04T12:35:24;99740.59;;;12.62;69.35
21276;BME280;36472;52.170;20.884;2022-11-04T12:38:16;99740.47;;;12.63;69.84
21276;BME280;36472;52.170;20.884;2022-11-04T12:40:59;99745.38;;;12.68;69.03
21276;BME280;36472;52.170;20.884;2022-11-04T12:44:02;99749.47;;;12.82;67.63
21276;BME280;36472;52.170;20.884;2022-11-04T12:46:42;99746.00;;;12.81;67.16
21276;BME280;36472;52.170;20.884;2022-11-04T12:50:03;99734.44;;;12.72;67.21
21276;BME280;36472;52.170;20.884;2022-11-04T12:55:54;99731.34;;;12.67;67.65
21276;BME280;36472;52.170;20.884;2022-11-04T12:58:44;99720.63;;;12.59;68.31
21276;BME280;36472;52.170;20.884;2022-11-04T13:01:22;99726.16;;;12.56;69.04
21276;BME280;36472;52.170;20.884;2022-11-04T13:04:00;99735.00;;;12.55;68.64
21276;BME280;36472;52.170;20.884;2022-11-04T13:06:37;99726.28;;;12.54;68.89
21276;BME280;36472;52.170;20.884;2022-11-04T13:09:14;99727.09;;;12.55;69.39
21276;BME280;36472;52.170;20.884;2022-11-04T13:11:51;99720.34;;;12.41;69.13
21276;BME280;36472;52.170;20.884;2022-11-04T13:14:26;99731.22;;;12.48;68.74
21276;BME280;36472;52.170;20.884;2022-11-04T13:17:00;99736.13;;;12.52;69.11
21276;BME280;36472;52.170;20.884;2022-11-04T13:19:39;99731.66;;;12.53;68.75
21276;BME280;36472;52.170;20.884;2022-11-04T13:22:16;99737.63;;;12.55;68.60
21276;BME280;36472;52.170;20.884;2022-11-04T13:24:53;99746.22;;;12.47;70.29
21276;BME280;36472;52.170;20.884;2022-11-04T13:27:26;99756.16;;;12.44;69.10
21276;BME280;36472;52.170;20.884;2022-11-04T13:30:06;99745.31;;;12.37;68.70
21276;BME280;36472;52.170;20.884;2022-11-04T13:32:47;99736.69;;;12.35;69.34
21276;BME280;36472;52.170;20.884;2022-11-04T13:35:25;99748.06;;;12.35;69.15
21276;BME280;36472;52.170;20.884;2022-11-04T13:38:03;99740.28;;;12.34;69.66
21276;BME280;36472;52.170;20.884;2022-11-04T13:40:50;99741.88;;;12.25;69.22